Minneapolis, Minnesota
Current Conditions -  °F | °C
As of 11:53 PM on Tuesday 27 Jan 2015 (Local Time) from KMSP Reporting Station
Overcast Overcast  
Wind Chill: 21°   Ceiling: 1100
Heat Index: 30°   Visibility: 10mi
Dew Point: 25°   Wind: 12mph
Humidity: 82%   Direction: 140°SE
Pressure: 30.13"   Gusts: NA
Location:  44.98°N, 93.26°W
Report Text: KMSP 280553Z 14010KT 10SM OVC011 M01/M04 A3013 RMK AO2 SLP213 T10111039 10000 21011 400221011 55005
Loading
Personal Weather Stations






























Interactive Weather Map New forecast layout! Learn more

10-Day Weather Forecast

Advertisements
Track Severe Weather on mobile